sensor_id;sensor_type;location;lat;lon;timestamp;pressure;altitude;pressure_sealevel;temperature;humidity
967;BME280;56108;48.730;9.304;2023-02-18T00:00:23;98515.06;;;10.69;100.00
967;BME280;56108;48.730;9.304;2023-02-18T00:02:33;98510.88;;;10.65;100.00
967;BME280;56108;48.730;9.304;2023-02-18T00:04:45;98499.78;;;10.73;100.00
967;BME280;56108;48.730;9.304;2023-02-18T00:06:53;98500.97;;;10.67;100.00
967;BME280;56108;48.730;9.304;2023-02-18T00:09:02;98500.03;;;10.68;100.00
967;BME280;56108;48.730;9.304;2023-02-18T00:11:11;98502.88;;;10.81;100.00
967;BME280;56108;48.730;9.304;2023-02-18T00:13:19;98490.25;;;10.84;100.00
967;BME280;56108;48.730;9.304;2023-02-18T00:15:27;98487.22;;;10.75;100.00
967;BME280;56108;48.730;9.304;2023-02-18T00:17:37;98502.09;;;10.79;100.00
967;BME280;56108;48.730;9.304;2023-02-18T00:19:45;98505.97;;;10.73;100.00
967;BME280;56108;48.730;9.304;2023-02-18T00:21:53;98513.44;;;10.82;100.00
967;BME280;56108;48.730;9.304;2023-02-18T00:24:01;98511.19;;;10.75;100.00
967;BME280;56108;48.730;9.304;2023-02-18T00:26:11;98512.59;;;10.66;100.00
967;BME280;56108;48.730;9.304;2023-02-18T00:28:20;98504.25;;;10.72;100.00
967;BME280;56108;48.730;9.304;2023-02-18T00:30:28;98502.34;;;10.74;100.00
967;BME280;56108;48.730;9.304;2023-02-18T00:32:38;98505.00;;;10.74;100.00
967;BME280;56108;48.730;9.304;2023-02-18T00:34:48;98505.88;;;10.90;100.00
967;BME280;56108;48.730;9.304;2023-02-18T00:36:56;98507.66;;;10.74;100.00
967;BME280;56108;48.730;9.304;2023-02-18T00:39:06;98501.75;;;10.69;100.00
967;BME280;56108;48.730;9.304;2023-02-18T00:41:16;98502.34;;;10.74;100.00
967;BME280;56108;48.730;9.304;2023-02-18T00:43:24;98505.88;;;10.75;100.00
967;BME280;56108;48.730;9.304;2023-02-18T00:45:32;98506.22;;;10.84;100.00
967;BME280;56108;48.730;9.304;2023-02-18T00:47:43;98501.84;;;10.83;100.00
967;BME280;56108;48.730;9.304;2023-02-18T00:49:51;98496.16;;;10.74;100.00
967;BME280;56108;48.730;9.304;2023-02-18T00:51:59;98496.25;;;10.72;100.00
967;BME280;56108;48.730;9.304;2023-02-18T00:54:07;98479.50;;;10.70;100.00
967;BME280;56108;48.730;9.304;2023-02-18T00:56:14;98480.78;;;10.79;100.00
967;BME280;56108;48.730;9.304;2023-02-18T00:58:23;98487.06;;;10.78;100.00
967;BME280;56108;48.730;9.304;2023-02-18T01:00:31;98485.16;;;10.80;100.00
967;BME280;56108;48.730;9.304;2023-02-18T01:02:39;98483.31;;;10.66;100.00
967;BME280;56108;48.730;9.304;2023-02-18T01:04:50;98487.22;;;10.75;100.00
967;BME280;56108;48.730;9.304;2023-02-18T01:06:58;98489.13;;;10.73;100.00
967;BME280;56108;48.730;9.304;2023-02-18T01:09:06;98488.69;;;10.64;100.00
967;BME280;56108;48.730;9.304;2023-02-18T01:11:14;98487.47;;;10.70;100.00
967;BME280;56108;48.730;9.304;2023-02-18T01:13:23;98495.41;;;10.71;100.00
967;BME280;56108;48.730;9.304;2023-02-18T01:15:32;98487.22;;;10.59;100.00
967;BME280;56108;48.730;9.304;2023-02-18T01:17:40;98478.03;;;10.64;100.00
967;BME280;56108;48.730;9.304;2023-02-18T01:19:51;98471.25;;;10.59;100.00
967;BME280;56108;48.730;9.304;2023-02-18T01:21:59;98471.25;;;10.59;100.00
967;BME280;56108;48.730;9.304;2023-02-18T01:24:11;98468.84;;;10.70;100.00
967;BME280;56108;48.730;9.304;2023-02-18T01:26:19;98470.84;;;10.66;100.00
967;BME280;56108;48.730;9.304;2023-02-18T01:28:27;98463.09;;;10.62;100.00
967;BME280;56108;48.730;9.304;2023-02-18T01:30:35;98467.38;;;10.64;100.00
967;BME280;56108;48.730;9.304;2023-02-18T01:32:43;98463.97;;;10.62;100.00
967;BME280;56108;48.730;9.304;2023-02-18T01:34:54;98465.53;;;10.66;100.00
967;BME280;56108;48.730;9.304;2023-02-18T01:37:04;98469.19;;;10.64;100.00
967;BME280;56108;48.730;9.304;2023-02-18T01:39:12;98463.53;;;10.54;100.00
967;BME280;56108;48.730;9.304;2023-02-18T01:41:21;98464.31;;;10.56;100.00
967;BME280;56108;48.730;9.304;2023-02-18T01:43:29;98464.56;;;10.52;100.00
967;BME280;56108;48.730;9.304;2023-02-18T01:45:55;98473.31;;;10.54;100.00
967;BME280;56108;48.730;9.304;2023-02-18T01:48:07;98470.91;;;10.49;100.00
967;BME280;56108;48.730;9.304;2023-02-18T01:50:19;98478.56;;;10.55;100.00
967;BME280;56108;48.730;9.304;2023-02-18T01:52:27;98470.94;;;10.65;100.00
967;BME280;56108;48.730;9.304;2023-02-18T01:54:40;98470.41;;;10.58;100.00
967;BME280;56108;48.730;9.304;2023-02-18T01:56:51;98476.56;;;10.59;100.00
967;BME280;56108;48.730;9.304;2023-02-18T01:59:06;98468.84;;;10.54;100.00
967;BME280;56108;48.730;9.304;2023-02-18T02:01:14;98468.34;;;10.63;100.00
967;BME280;56108;48.730;9.304;2023-02-18T02:03:22;98466.28;;;10.53;100.00
967;BME280;56108;48.730;9.304;2023-02-18T02:05:33;98467.38;;;10.49;100.00
967;BME280;56108;48.730;9.304;2023-02-18T02:07:41;98458.13;;;10.56;100.00
967;BME280;56108;48.730;9.304;2023-02-18T02:09:52;98454.34;;;10.44;100.00
967;BME280;56108;48.730;9.304;2023-02-18T02:15:00;98449.97;;;10.59;100.00
967;BME280;56108;48.730;9.304;2023-02-18T02:17:17;98437.19;;;10.50;100.00
967;BME280;56108;48.730;9.304;2023-02-18T02:22:57;98445.84;;;10.53;100.00
967;BME280;56108;48.730;9.304;2023-02-18T02:25:33;98449.19;;;10.57;100.00
967;BME280;56108;48.730;9.304;2023-02-18T02:28:10;98450.50;;;10.50;100.00
967;BME280;56108;48.730;9.304;2023-02-18T02:31:02;98443.28;;;10.52;100.00
967;BME280;56108;48.730;9.304;2023-02-18T02:33:39;98440.34;;;10.40;100.00
967;BME280;56108;48.730;9.304;2023-02-18T02:35:59;98436.91;;;10.38;100.00
967;BME280;56108;48.730;9.304;2023-02-18T02:38:15;98440.34;;;10.40;100.00
967;BME280;56108;48.730;9.304;2023-02-18T02:40:31;98439.56;;;10.54;100.00
967;BME280;56108;48.730;9.304;2023-02-18T02:42:47;98443.63;;;10.45;100.00
967;BME280;56108;48.730;9.304;2023-02-18T02:45:03;98435.38;;;10.34;100.00
967;BME280;56108;48.730;9.304;2023-02-18T02:47:23;98432.16;;;10.28;100.00
967;BME280;56108;48.730;9.304;2023-02-18T02:49:36;98431.41;;;10.26;100.00
967;BME280;56108;48.730;9.304;2023-02-18T02:51:55;98425.59;;;10.35;100.00
967;BME280;56108;48.730;9.304;2023-02-18T02:54:14;98420.00;;;10.39;100.00
967;BME280;56108;48.730;9.304;2023-02-18T02:56:24;98426.34;;;10.37;100.00
967;BME280;56108;48.730;9.304;2023-02-18T02:58:32;98421.28;;;10.32;100.00
967;BME280;56108;48.730;9.304;2023-02-18T03:00:52;98424.78;;;10.33;100.00
967;BME280;56108;48.730;9.304;2023-02-18T03:03:35;98415.09;;;10.32;100.00
967;BME280;56108;48.730;9.304;2023-02-18T03:06:04;98418.09;;;10.26;100.00
967;BME280;56108;48.730;9.304;2023-02-18T03:08:39;98427.25;;;10.20;100.00
967;BME280;56108;48.730;9.304;2023-02-18T03:10:55;98429.59;;;10.26;100.00
967;BME280;56108;48.730;9.304;2023-02-18T03:13:14;98412.53;;;10.30;100.00
967;BME280;56108;48.730;9.304;2023-02-18T03:15:31;98424.63;;;10.36;100.00
967;BME280;56108;48.730;9.304;2023-02-18T03:17:47;98427.44;;;10.33;100.00
967;BME280;56108;48.730;9.304;2023-02-18T03:22:18;98431.84;;;10.34;100.00
967;BME280;56108;48.730;9.304;2023-02-18T03:24:33;98424.19;;;10.28;100.00
967;BME280;56108;48.730;9.304;2023-02-18T03:26:47;98417.81;;;10.14;100.00
967;BME280;56108;48.730;9.304;2023-02-18T03:29:00;98414.53;;;10.09;100.00
967;BME280;56108;48.730;9.304;2023-02-18T03:31:11;98411.78;;;10.11;100.00
967;BME280;56108;48.730;9.304;2023-02-18T03:33:25;98405.75;;;10.07;100.00
967;BME280;56108;48.730;9.304;2023-02-18T03:35:36;98401.16;;;10.11;100.00
967;BME280;56108;48.730;9.304;2023-02-18T03:37:49;98401.00;;;10.14;100.00
967;BME280;56108;48.730;9.304;2023-02-18T03:40:02;98392.66;;;10.04;100.00
967;BME280;56108;48.730;9.304;2023-02-18T03:42:10;98390.84;;;10.05;100.00
967;BME280;56108;48.730;9.304;2023-02-18T03:44:18;98384.69;;;10.04;100.00
967;BME280;56108;48.730;9.304;2023-02-18T03:46:28;98393.41;;;10.06;100.00
967;BME280;56108;48.730;9.304;2023-02-18T03:48:36;98390.75;;;10.06;100.00
967;BME280;56108;48.730;9.304;2023-02-18T03:50:44;98386.63;;;10.01;100.00
967;BME280;56108;48.730;9.304;2023-02-18T03:52:52;98388.69;;;9.96;100.00
967;BME280;56108;48.730;9.304;2023-02-18T03:55:03;98387.34;;;10.04;100.00
967;BME280;56108;48.730;9.304;2023-02-18T03:57:13;98390.69;;;9.92;100.00
967;BME280;56108;48.730;9.304;2023-02-18T03:59:20;98404.63;;;9.96;100.00
967;BME280;56108;48.730;9.304;2023-02-18T04:01:28;98400.50;;;9.90;100.00
967;BME280;56108;48.730;9.304;2023-02-18T04:03:37;98411.38;;;9.85;100.00
967;BME280;56108;48.730;9.304;2023-02-18T04:05:44;98409.63;;;9.68;100.00
967;BME280;56108;48.730;9.304;2023-02-18T04:07:53;98399.00;;;9.68;100.00
967;BME280;56108;48.730;9.304;2023-02-18T04:10:05;98399.25;;;9.64;100.00
967;BME280;56108;48.730;9.304;2023-02-18T04:12:13;98397.06;;;9.55;100.00
967;BME280;56108;48.730;9.304;2023-02-18T04:14:21;98399.81;;;9.53;100.00
967;BME280;56108;48.730;9.304;2023-02-18T04:16:29;98408.03;;;9.49;100.00
967;BME280;56108;48.730;9.304;2023-02-18T04:18:37;98404.03;;;9.57;100.00
967;BME280;56108;48.730;9.304;2023-02-18T04:20:45;98405.78;;;9.74;100.00
967;BME280;56108;48.730;9.304;2023-02-18T04:22:54;98401.19;;;9.78;100.00
967;BME280;56108;48.730;9.304;2023-02-18T04:25:05;98398.25;;;9.66;100.00
967;BME280;56108;48.730;9.304;2023-02-18T04:27:13;98397.38;;;9.66;100.00
967;BME280;56108;48.730;9.304;2023-02-18T04:29:21;98393.94;;;9.64;100.00
967;BME280;56108;48.730;9.304;2023-02-18T04:31:29;98394.31;;;9.74;100.00
967;BME280;56108;48.730;9.304;2023-02-18T04:33:37;98396.69;;;9.62;100.00
967;BME280;56108;48.730;9.304;2023-02-18T04:35:45;98394.53;;;9.69;100.00
967;BME280;56108;48.730;9.304;2023-02-18T04:37:53;98391.19;;;9.65;100.00
967;BME280;56108;48.730;9.304;2023-02-18T04:40:00;98392.91;;;9.66;100.00
967;BME280;56108;48.730;9.304;2023-02-18T04:42:11;98399.38;;;9.45;100.00
967;BME280;56108;48.730;9.304;2023-02-18T04:44:19;98395.06;;;9.43;100.00
967;BME280;56108;48.730;9.304;2023-02-18T04:46:27;98396.47;;;9.32;100.00
967;BME280;56108;48.730;9.304;2023-02-18T04:48:35;98403.97;;;9.07;100.00
967;BME280;56108;48.730;9.304;2023-02-18T04:50:43;98391.84;;;9.19;100.00
967;BME280;56108;48.730;9.304;2023-02-18T04:52:51;98400.84;;;9.16;100.00
967;BME280;56108;48.730;9.304;2023-02-18T04:54:59;98397.03;;;9.04;100.00
967;BME280;56108;48.730;9.304;2023-02-18T04:57:07;98402.72;;;8.97;100.00
967;BME280;56108;48.730;9.304;2023-02-18T04:59:18;98405.06;;;9.03;100.00
967;BME280;56108;48.730;9.304;2023-02-18T05:01:26;98393.16;;;8.93;100.00
967;BME280;56108;48.730;9.304;2023-02-18T05:03:34;98405.75;;;8.89;100.00
967;BME280;56108;48.730;9.304;2023-02-18T05:05:42;98401.84;;;8.79;100.00
967;BME280;56108;48.730;9.304;2023-02-18T05:07:49;98412.53;;;8.77;100.00
967;BME280;56108;48.730;9.304;2023-02-18T05:09:57;98408.63;;;8.84;100.00
967;BME280;56108;48.730;9.304;2023-02-18T05:12:06;98405.44;;;8.78;100.00
967;BME280;56108;48.730;9.304;2023-02-18T05:14:14;98401.63;;;8.83;100.00
967;BME280;56108;48.730;9.304;2023-02-18T05:16:25;98402.06;;;8.74;100.00
967;BME280;56108;48.730;9.304;2023-02-18T05:18:33;98398.06;;;8.66;100.00
967;BME280;56108;48.730;9.304;2023-02-18T05:20:42;98393.34;;;8.72;100.00
967;BME280;56108;48.730;9.304;2023-02-18T05:22:50;98401.75;;;8.80;100.00
967;BME280;56108;48.730;9.304;2023-02-18T05:24:58;98399.44;;;8.92;100.00
967;BME280;56108;48.730;9.304;2023-02-18T05:27:06;98400.78;;;9.00;100.00
967;BME280;56108;48.730;9.304;2023-02-18T05:29:14;98392.88;;;9.16;100.00
967;BME280;56108;48.730;9.304;2023-02-18T05:31:24;98392.97;;;9.14;100.00
967;BME280;56108;48.730;9.304;2023-02-18T05:33:33;98393.84;;;9.15;100.00
967;BME280;56108;48.730;9.304;2023-02-18T05:35:40;98389.47;;;9.14;100.00
967;BME280;56108;48.730;9.304;2023-02-18T05:37:48;98383.28;;;9.13;100.00
967;BME280;56108;48.730;9.304;2023-02-18T05:39:56;98384.06;;;9.15;100.00
967;BME280;56108;48.730;9.304;2023-02-18T05:42:04;98379.69;;;9.14;100.00
967;BME280;56108;48.730;9.304;2023-02-18T05:44:12;98384.16;;;9.14;100.00
967;BME280;56108;48.730;9.304;2023-02-18T05:46:35;98391.00;;;9.01;100.00
967;BME280;56108;48.730;9.304;2023-02-18T05:48:43;98380.84;;;8.92;100.00
967;BME280;56108;48.730;9.304;2023-02-18T05:50:53;98382.72;;;8.89;100.00
967;BME280;56108;48.730;9.304;2023-02-18T05:53:01;98374.53;;;8.94;100.00
967;BME280;56108;48.730;9.304;2023-02-18T05:55:10;98383.03;;;8.83;100.00
967;BME280;56108;48.730;9.304;2023-02-18T05:57:18;98383.66;;;8.88;100.00
967;BME280;56108;48.730;9.304;2023-02-18T05:59:26;98375.53;;;8.92;100.00
967;BME280;56108;48.730;9.304;2023-02-18T06:01:37;98386.31;;;8.88;100.00
967;BME280;56108;48.730;9.304;2023-02-18T06:03:45;98375.41;;;8.95;100.00
967;BME280;56108;48.730;9.304;2023-02-18T06:05:53;98376.16;;;8.97;100.00
967;BME280;56108;48.730;9.304;2023-02-18T06:08:01;98378.41;;;8.87;100.00
967;BME280;56108;48.730;9.304;2023-02-18T06:10:10;98370.53;;;8.85;100.00
967;BME280;56108;48.730;9.304;2023-02-18T06:12:18;98375.53;;;8.92;100.00
967;BME280;56108;48.730;9.304;2023-02-18T06:14:26;98372.34;;;9.02;100.00
967;BME280;56108;48.730;9.304;2023-02-18T06:16:36;98371.66;;;8.99;100.00
967;BME280;56108;48.730;9.304;2023-02-18T06:18:44;98373.81;;;8.91;100.00
967;BME280;56108;48.730;9.304;2023-02-18T06:20:52;98379.00;;;8.94;100.00
967;BME280;56108;48.730;9.304;2023-02-18T06:23:00;98369.47;;;8.89;100.00
967;BME280;56108;48.730;9.304;2023-02-18T06:25:11;98373.28;;;9.01;100.00
967;BME280;56108;48.730;9.304;2023-02-18T06:27:19;98378.50;;;8.85;100.00
967;BME280;56108;48.730;9.304;2023-02-18T06:30:02;98387.50;;;8.83;100.00
967;BME280;56108;48.730;9.304;2023-02-18T06:32:31;98380.38;;;9.01;100.00
967;BME280;56108;48.730;9.304;2023-02-18T06:34:50;98377.72;;;9.01;100.00
967;BME280;56108;48.730;9.304;2023-02-18T06:36:58;98376.03;;;8.82;100.00
967;BME280;56108;48.730;9.304;2023-02-18T06:39:07;98384.06;;;8.98;100.00
967;BME280;56108;48.730;9.304;2023-02-18T06:41:15;98382.03;;;9.03;100.00
967;BME280;56108;48.730;9.304;2023-02-18T06:43:23;98378.81;;;8.97;100.00
967;BME280;56108;48.730;9.304;2023-02-18T06:45:31;98376.25;;;8.95;100.00
967;BME280;56108;48.730;9.304;2023-02-18T06:47:41;98368.19;;;8.97;100.00
967;BME280;56108;48.730;9.304;2023-02-18T06:49:49;98378.19;;;8.92;100.00
967;BME280;56108;48.730;9.304;2023-02-18T06:51:57;98378.59;;;9.01;100.00
967;BME280;56108;48.730;9.304;2023-02-18T06:54:05;98375.69;;;9.06;100.00
967;BME280;56108;48.730;9.304;2023-02-18T06:56:13;98380.16;;;9.05;100.00
967;BME280;56108;48.730;9.304;2023-02-18T06:58:21;98384.84;;;9.18;100.00
967;BME280;56108;48.730;9.304;2023-02-18T07:00:30;98387.66;;;9.14;100.00
967;BME280;56108;48.730;9.304;2023-02-18T07:02:44;98385.47;;;9.05;100.00
967;BME280;56108;48.730;9.304;2023-02-18T07:04:51;98385.88;;;9.15;100.00
967;BME280;56108;48.730;9.304;2023-02-18T07:06:59;98388.19;;;9.21;100.00
967;BME280;56108;48.730;9.304;2023-02-18T07:09:07;98382.53;;;9.45;100.00
967;BME280;56108;48.730;9.304;2023-02-18T07:11:18;98381.16;;;9.37;100.00
967;BME280;56108;48.730;9.304;2023-02-18T07:13:26;98383.66;;;9.40;100.00
967;BME280;56108;48.730;9.304;2023-02-18T07:15:34;98387.22;;;9.39;100.00
967;BME280;56108;48.730;9.304;2023-02-18T07:17:45;98390.84;;;9.38;100.00
967;BME280;56108;48.730;9.304;2023-02-18T07:19:53;98387.38;;;9.54;100.00
967;BME280;56108;48.730;9.304;2023-02-18T07:22:01;98386.09;;;9.45;100.00
967;BME280;56108;48.730;9.304;2023-02-18T07:24:09;98383.47;;;9.44;100.00
967;BME280;56108;48.730;9.304;2023-02-18T07:26:18;98386.75;;;9.66;100.00
967;BME280;56108;48.730;9.304;2023-02-18T07:28:25;98393.28;;;9.76;100.00
967;BME280;56108;48.730;9.304;2023-02-18T07:30:33;98394.41;;;9.72;100.00
967;BME280;56108;48.730;9.304;2023-02-18T07:32:41;98385.56;;;9.72;100.00
967;BME280;56108;48.730;9.304;2023-02-18T07:34:53;98383.91;;;9.69;100.00
967;BME280;56108;48.730;9.304;2023-02-18T07:37:00;98396.47;;;9.83;100.00
967;BME280;56108;48.730;9.304;2023-02-18T07:39:13;98391.31;;;9.80;100.00
967;BME280;56108;48.730;9.304;2023-02-18T07:41:24;98388.31;;;9.86;100.00
967;BME280;56108;48.730;9.304;2023-02-18T07:43:32;98383.63;;;9.91;100.00
967;BME280;56108;48.730;9.304;2023-02-18T07:45:40;98379.25;;;9.90;100.00
967;BME280;56108;48.730;9.304;2023-02-18T07:47:48;98374.75;;;10.08;100.00
967;BME280;56108;48.730;9.304;2023-02-18T07:49:59;98372.59;;;10.14;100.00
967;BME280;56108;48.730;9.304;2023-02-18T07:52:07;98375.75;;;10.21;100.00
967;BME280;56108;48.730;9.304;2023-02-18T07:54:15;98380.00;;;10.25;100.00
967;BME280;56108;48.730;9.304;2023-02-18T07:56:24;98372.13;;;10.39;100.00
967;BME280;56108;48.730;9.304;2023-02-18T07:58:33;98374.59;;;10.42;100.00
967;BME280;56108;48.730;9.304;2023-02-18T08:00:41;98363.28;;;10.55;100.00
967;BME280;56108;48.730;9.304;2023-02-18T08:02:51;98366.06;;;10.67;100.00
967;BME280;56108;48.730;9.304;2023-02-18T08:05:01;98364.44;;;10.81;100.00
967;BME280;56108;48.730;9.304;2023-02-18T08:07:12;98362.00;;;10.92;100.00
967;BME280;56108;48.730;9.304;2023-02-18T08:09:19;98372.38;;;10.96;100.00
967;BME280;56108;48.730;9.304;2023-02-18T08:11:27;98364.69;;;11.06;100.00
967;BME280;56108;48.730;9.304;2023-02-18T08:13:35;98366.13;;;11.12;100.00
967;BME280;56108;48.730;9.304;2023-02-18T08:15:43;98368.44;;;11.18;100.00
967;BME280;56108;48.730;9.304;2023-02-18T08:17:51;98366.53;;;11.20;100.00
967;BME280;56108;48.730;9.304;2023-02-18T08:20:02;98356.72;;;11.20;100.00
967;BME280;56108;48.730;9.304;2023-02-18T08:22:09;98370.06;;;11.20;100.00
967;BME280;56108;48.730;9.304;2023-02-18T08:24:17;98368.78;;;11.12;100.00
967;BME280;56108;48.730;9.304;2023-02-18T08:26:26;98374.53;;;11.20;100.00
967;BME280;56108;48.730;9.304;2023-02-18T08:28:34;98372.06;;;11.31;100.00
967;BME280;56108;48.730;9.304;2023-02-18T08:30:43;98370.75;;;11.24;100.00
967;BME280;56108;48.730;9.304;2023-02-18T08:32:52;98373.91;;;11.45;100.00
967;BME280;56108;48.730;9.304;2023-02-18T08:35:04;98370.59;;;11.56;99.28
967;BME280;56108;48.730;9.304;2023-02-18T08:37:12;98373.28;;;11.56;97.87
967;BME280;56108;48.730;9.304;2023-02-18T08:39:20;98366.50;;;11.50;98.21
967;BME280;56108;48.730;9.304;2023-02-18T08:41:28;98362.50;;;11.57;97.94
967;BME280;56108;48.730;9.304;2023-02-18T08:43:36;98359.38;;;11.65;98.29
967;BME280;56108;48.730;9.304;2023-02-18T08:45:44;98354.97;;;11.64;97.70
967;BME280;56108;48.730;9.304;2023-02-18T08:47:52;98361.09;;;11.66;97.54
967;BME280;56108;48.730;9.304;2023-02-18T08:50:23;98364.91;;;11.76;96.34
967;BME280;56108;48.730;9.304;2023-02-18T08:52:31;98363.19;;;11.89;95.52
967;BME280;56108;48.730;9.304;2023-02-18T08:54:39;98360.31;;;11.78;95.80
967;BME280;56108;48.730;9.304;2023-02-18T08:56:47;98359.28;;;11.95;94.50
967;BME280;56108;48.730;9.304;2023-02-18T08:58:55;98362.47;;;11.87;94.79
967;BME280;56108;48.730;9.304;2023-02-18T09:01:05;98365.50;;;11.95;94.30
967;BME280;56108;48.730;9.304;2023-02-18T09:03:14;98354.72;;;12.11;93.23
967;BME280;56108;48.730;9.304;2023-02-18T09:05:26;98357.69;;;12.07;93.49
967;BME280;56108;48.730;9.304;2023-02-18T09:07:34;98361.00;;;12.10;92.93
967;BME280;56108;48.730;9.304;2023-02-18T09:09:42;98354.09;;;12.35;90.39
967;BME280;56108;48.730;9.304;2023-02-18T09:11:50;98348.50;;;12.11;91.88
967;BME280;56108;48.730;9.304;2023-02-18T09:13:58;98352.84;;;12.40;91.16
967;BME280;56108;48.730;9.304;2023-02-18T09:16:09;98347.66;;;12.51;89.95
967;BME280;56108;48.730;9.304;2023-02-18T09:18:18;98354.38;;;12.44;88.50
967;BME280;56108;48.730;9.304;2023-02-18T09:20:28;98357.63;;;12.62;89.32
967;BME280;56108;48.730;9.304;2023-02-18T09:22:36;98350.41;;;12.64;88.54
967;BME280;56108;48.730;9.304;2023-02-18T09:24:44;98345.34;;;12.60;88.17
967;BME280;56108;48.730;9.304;2023-02-18T09:26:53;98340.88;;;12.33;88.34
967;BME280;56108;48.730;9.304;2023-02-18T09:29:03;98346.69;;;12.52;88.60
967;BME280;56108;48.730;9.304;2023-02-18T09:31:12;98340.31;;;12.55;87.89
967;BME280;56108;48.730;9.304;2023-02-18T09:33:21;98342.38;;;12.64;86.47
967;BME280;56108;48.730;9.304;2023-02-18T09:35:32;98334.97;;;12.55;87.89
967;BME280;56108;48.730;9.304;2023-02-18T09:37:39;98337.50;;;12.71;86.21
967;BME280;56108;48.730;9.304;2023-02-18T09:39:47;98321.59;;;12.82;86.34
967;BME280;56108;48.730;9.304;2023-02-18T09:41:57;98317.16;;;12.95;85.85
967;BME280;56108;48.730;9.304;2023-02-18T09:44:10;98334.38;;;13.04;84.53
967;BME280;56108;48.730;9.304;2023-02-18T09:46:22;98318.63;;;12.87;84.82
967;BME280;56108;48.730;9.304;2023-02-18T09:48:33;98324.72;;;12.89;84.76
967;BME280;56108;48.730;9.304;2023-02-18T09:50:48;98325.19;;;13.08;83.48
967;BME280;56108;48.730;9.304;2023-02-18T09:52:59;98318.25;;;13.05;82.68
967;BME280;56108;48.730;9.304;2023-02-18T09:55:17;98323.13;;;12.86;84.59
967;BME280;56108;48.730;9.304;2023-02-18T09:57:31;98322.16;;;12.87;83.00
967;BME280;56108;48.730;9.304;2023-02-18T09:59:42;98316.38;;;12.80;83.57
967;BME280;56108;48.730;9.304;2023-02-18T10:01:53;98328.47;;;12.86;84.15
967;BME280;56108;48.730;9.304;2023-02-18T10:04:04;98317.34;;;12.92;83.12
967;BME280;56108;48.730;9.304;2023-02-18T10:06:23;98324.63;;;12.63;84.03
967;BME280;56108;48.730;9.304;2023-02-18T10:08:34;98324.28;;;12.82;84.34
967;BME280;56108;48.730;9.304;2023-02-18T10:10:44;98324.50;;;12.79;83.20
967;BME280;56108;48.730;9.304;2023-02-18T10:12:53;98317.03;;;12.97;82.76
967;BME280;56108;48.730;9.304;2023-02-18T10:15:02;98324.94;;;12.98;82.45
967;BME280;56108;48.730;9.304;2023-02-18T10:17:12;98326.47;;;13.15;82.25
967;BME280;56108;48.730;9.304;2023-02-18T10:19:26;98320.53;;;13.24;80.88
967;BME280;56108;48.730;9.304;2023-02-18T10:21:39;98312.44;;;12.99;81.53
967;BME280;56108;48.730;9.304;2023-02-18T10:23:54;98319.97;;;13.06;81.37
967;BME280;56108;48.730;9.304;2023-02-18T10:26:06;98315.78;;;13.02;81.94
967;BME280;56108;48.730;9.304;2023-02-18T10:28:18;98318.38;;;13.17;81.23
967;BME280;56108;48.730;9.304;2023-02-18T10:30:32;98312.06;;;13.18;77.32
967;BME280;56108;48.730;9.304;2023-02-18T10:32:44;98326.22;;;13.32;76.66
967;BME280;56108;48.730;9.304;2023-02-18T10:34:55;98321.72;;;13.33;76.97
967;BME280;56108;48.730;9.304;2023-02-18T10:37:25;98324.50;;;13.31;75.54
967;BME280;56108;48.730;9.304;2023-02-18T10:39:47;98332.00;;;13.39;75.60
967;BME280;56108;48.730;9.304;2023-02-18T10:42:09;98329.13;;;13.42;76.26
967;BME280;56108;48.730;9.304;2023-02-18T10:44:28;98325.47;;;13.43;74.93
967;BME280;56108;48.730;9.304;2023-02-18T10:46:44;98322.16;;;13.52;74.15
967;BME280;56108;48.730;9.304;2023-02-18T10:49:11;98322.69;;;13.70;74.07
967;BME280;56108;48.730;9.304;2023-02-18T10:51:26;98328.53;;;13.88;72.45
967;BME280;56108;48.730;9.304;2023-02-18T10:53:41;98331.78;;;13.80;72.77
967;BME280;56108;48.730;9.304;2023-02-18T10:55:50;98327.81;;;13.61;71.74
967;BME280;56108;48.730;9.304;2023-02-18T10:58:05;98319.06;;;13.58;73.46
967;BME280;56108;48.730;9.304;2023-02-18T11:00:34;98330.59;;;13.72;73.10
967;BME280;56108;48.730;9.304;2023-02-18T11:02:45;98323.53;;;13.83;71.86
967;BME280;56108;48.730;9.304;2023-02-18T11:05:17;98327.38;;;13.92;70.02
967;BME280;56108;48.730;9.304;2023-02-18T11:07:30;98318.28;;;13.82;71.62
967;BME280;56108;48.730;9.304;2023-02-18T11:09:45;98316.44;;;13.82;71.09
967;BME280;56108;48.730;9.304;2023-02-18T11:12:01;98290.94;;;14.02;70.90
967;BME280;56108;48.730;9.304;2023-02-18T11:14:15;98304.97;;;14.06;70.05
967;BME280;56108;48.730;9.304;2023-02-18T11:16:42;98314.13;;;14.27;68.83
967;BME280;56108;48.730;9.304;2023-02-18T11:18:51;98296.69;;;14.22;68.25
967;BME280;56108;48.730;9.304;2023-02-18T11:21:00;98291.59;;;14.30;67.55
967;BME280;56108;48.730;9.304;2023-02-18T11:23:17;98286.94;;;14.21;69.52
967;BME280;56108;48.730;9.304;2023-02-18T11:25:31;98286.03;;;14.33;69.16
967;BME280;56108;48.730;9.304;2023-02-18T11:27:42;98285.41;;;14.29;67.42
967;BME280;56108;48.730;9.304;2023-02-18T11:29:53;98280.91;;;14.30;67.17
967;BME280;56108;48.730;9.304;2023-02-18T11:32:03;98270.88;;;14.21;67.72
967;BME280;56108;48.730;9.304;2023-02-18T11:34:15;98274.25;;;13.99;68.81
967;BME280;56108;48.730;9.304;2023-02-18T11:36:28;98272.22;;;14.02;68.17
967;BME280;56108;48.730;9.304;2023-02-18T11:38:41;98259.94;;;14.00;68.19
967;BME280;56108;48.730;9.304;2023-02-18T11:40:56;98264.94;;;14.04;67.39
967;BME280;56108;48.730;9.304;2023-02-18T11:43:12;98274.22;;;14.12;68.30
967;BME280;56108;48.730;9.304;2023-02-18T11:45:29;98269.66;;;14.01;67.71
967;BME280;56108;48.730;9.304;2023-02-18T11:47:37;98278.28;;;14.17;67.70
967;BME280;56108;48.730;9.304;2023-02-18T11:49:59;98266.47;;;14.20;67.22
967;BME280;56108;48.730;9.304;2023-02-18T11:52:17;98262.03;;;14.07;67.75
967;BME280;56108;48.730;9.304;2023-02-18T11:54:27;98247.13;;;14.16;66.87
967;BME280;56108;48.730;9.304;2023-02-18T11:56:39;98254.75;;;14.09;66.35
967;BME280;56108;48.730;9.304;2023-02-18T11:58:47;98250.25;;;14.34;66.89